sensor_id;sensor_type;location;lat;lon;timestamp;P1;durP1;ratioP1;P2;durP2;ratioP2
72584;SDS011;60618;40.084;32.908;2023-09-19T00:01:29;7.23;;;3.53;;
72584;SDS011;60618;40.084;32.908;2023-09-19T00:03:56;8.23;;;3.40;;
72584;SDS011;60618;40.084;32.908;2023-09-19T00:06:23;7.65;;;3.40;;
72584;SDS011;60618;40.084;32.908;2023-09-19T00:08:50;8.68;;;3.20;;
72584;SDS011;60618;40.084;32.908;2023-09-19T00:11:17;7.00;;;3.45;;
72584;SDS011;60618;40.084;32.908;2023-09-19T00:13:47;6.47;;;3.20;;
72584;SDS011;60618;40.084;32.908;2023-09-19T00:16:14;7.82;;;3.38;;
72584;SDS011;60618;40.084;32.908;2023-09-19T00:18:41;6.28;;;3.08;;
72584;SDS011;60618;40.084;32.908;2023-09-19T00:21:08;7.22;;;2.97;;
72584;SDS011;60618;40.084;32.908;2023-09-19T00:23:35;8.25;;;3.53;;
72584;SDS011;60618;40.084;32.908;2023-09-19T00:26:02;7.33;;;3.60;;
72584;SDS011;60618;40.084;32.908;2023-09-19T00:28:29;7.07;;;3.17;;
72584;SDS011;60618;40.084;32.908;2023-09-19T00:30:56;8.55;;;3.60;;
72584;SDS011;60618;40.084;32.908;2023-09-19T00:33:23;8.10;;;3.38;;
72584;SDS011;60618;40.084;32.908;2023-09-19T00:35:51;7.70;;;3.65;;
72584;SDS011;60618;40.084;32.908;2023-09-19T00:38:19;7.83;;;3.57;;
72584;SDS011;60618;40.084;32.908;2023-09-19T00:40:48;8.45;;;3.42;;
72584;SDS011;60618;40.084;32.908;2023-09-19T00:43:15;7.22;;;3.70;;
72584;SDS011;60618;40.084;32.908;2023-09-19T00:45:44;7.25;;;3.08;;
72584;SDS011;60618;40.084;32.908;2023-09-19T00:48:13;8.75;;;3.70;;
72584;SDS011;60618;40.084;32.908;2023-09-19T00:50:41;7.73;;;3.23;;
72584;SDS011;60618;40.084;32.908;2023-09-19T00:53:10;6.30;;;3.38;;
72584;SDS011;60618;40.084;32.908;2023-09-19T00:55:40;7.78;;;3.42;;
72584;SDS011;60618;40.084;32.908;2023-09-19T00:58:08;7.43;;;3.50;;
72584;SDS011;60618;40.084;32.908;2023-09-19T01:00:36;9.43;;;3.60;;
72584;SDS011;60618;40.084;32.908;2023-09-19T01:03:04;6.47;;;3.60;;
72584;SDS011;60618;40.084;32.908;2023-09-19T01:05:33;7.55;;;3.20;;
72584;SDS011;60618;40.084;32.908;2023-09-19T01:08:00;6.82;;;3.13;;
72584;SDS011;60618;40.084;32.908;2023-09-19T01:10:27;7.22;;;3.40;;
72584;SDS011;60618;40.084;32.908;2023-09-19T01:13:05;11.20;;;3.80;;
72584;SDS011;60618;40.084;32.908;2023-09-19T01:15:51;6.67;;;3.27;;
72584;SDS011;60618;40.084;32.908;2023-09-19T01:18:40;6.70;;;3.22;;
72584;SDS011;60618;40.084;32.908;2023-09-19T01:29:47;7.83;;;3.40;;
72584;SDS011;60618;40.084;32.908;2023-09-19T01:32:17;6.78;;;3.30;;
72584;SDS011;60618;40.084;32.908;2023-09-19T01:34:49;6.60;;;3.13;;
72584;SDS011;60618;40.084;32.908;2023-09-19T01:37:16;6.43;;;3.20;;
72584;SDS011;60618;40.084;32.908;2023-09-19T01:39:44;6.43;;;3.25;;
72584;SDS011;60618;40.084;32.908;2023-09-19T01:42:23;6.83;;;3.30;;
72584;SDS011;60618;40.084;32.908;2023-09-19T01:45:17;6.43;;;3.20;;
72584;SDS011;60618;40.084;32.908;2023-09-19T01:47:54;6.90;;;2.90;;
72584;SDS011;60618;40.084;32.908;2023-09-19T01:53:21;7.03;;;3.55;;
72584;SDS011;60618;40.084;32.908;2023-09-19T01:55:51;7.17;;;3.00;;
72584;SDS011;60618;40.084;32.908;2023-09-19T02:01:15;6.53;;;3.00;;
72584;SDS011;60618;40.084;32.908;2023-09-19T02:03:46;8.18;;;3.20;;
72584;SDS011;60618;40.084;32.908;2023-09-19T02:06:15;6.60;;;2.97;;
72584;SDS011;60618;40.084;32.908;2023-09-19T02:08:43;7.23;;;3.37;;
72584;SDS011;60618;40.084;32.908;2023-09-19T02:11:11;7.60;;;3.22;;
72584;SDS011;60618;40.084;32.908;2023-09-19T02:13:38;8.00;;;3.10;;
72584;SDS011;60618;40.084;32.908;2023-09-19T02:16:06;7.53;;;3.30;;
72584;SDS011;60618;40.084;32.908;2023-09-19T02:18:33;7.53;;;3.17;;
72584;SDS011;60618;40.084;32.908;2023-09-19T02:21:01;6.50;;;3.13;;
72584;SDS011;60618;40.084;32.908;2023-09-19T02:23:28;8.05;;;3.38;;
72584;SDS011;60618;40.084;32.908;2023-09-19T02:25:56;7.47;;;3.20;;
72584;SDS011;60618;40.084;32.908;2023-09-19T02:28:23;7.25;;;3.53;;
72584;SDS011;60618;40.084;32.908;2023-09-19T02:30:50;7.55;;;3.42;;
72584;SDS011;60618;40.084;32.908;2023-09-19T02:33:17;7.17;;;3.20;;
72584;SDS011;60618;40.084;32.908;2023-09-19T02:35:44;7.72;;;3.28;;
72584;SDS011;60618;40.084;32.908;2023-09-19T02:38:11;6.78;;;3.25;;
72584;SDS011;60618;40.084;32.908;2023-09-19T02:40:38;6.78;;;3.10;;
72584;SDS011;60618;40.084;32.908;2023-09-19T02:43:05;7.35;;;3.42;;
72584;SDS011;60618;40.084;32.908;2023-09-19T02:45:32;7.83;;;3.30;;
72584;SDS011;60618;40.084;32.908;2023-09-19T02:47:59;7.15;;;3.28;;
72584;SDS011;60618;40.084;32.908;2023-09-19T02:50:26;6.60;;;3.13;;
72584;SDS011;60618;40.084;32.908;2023-09-19T02:52:53;7.43;;;3.00;;
72584;SDS011;60618;40.084;32.908;2023-09-19T02:55:20;6.55;;;3.10;;
72584;SDS011;60618;40.084;32.908;2023-09-19T03:00:18;6.70;;;3.00;;
72584;SDS011;60618;40.084;32.908;2023-09-19T03:02:45;9.13;;;3.40;;
72584;SDS011;60618;40.084;32.908;2023-09-19T03:05:13;8.23;;;3.50;;
72584;SDS011;60618;40.084;32.908;2023-09-19T03:07:40;7.53;;;3.28;;
72584;SDS011;60618;40.084;32.908;2023-09-19T03:10:07;7.37;;;3.43;;
72584;SDS011;60618;40.084;32.908;2023-09-19T03:12:34;7.47;;;3.03;;
72584;SDS011;60618;40.084;32.908;2023-09-19T03:15:02;6.15;;;3.05;;
72584;SDS011;60618;40.084;32.908;2023-09-19T03:17:29;8.45;;;3.00;;
72584;SDS011;60618;40.084;32.908;2023-09-19T03:19:56;6.00;;;3.33;;
72584;SDS011;60618;40.084;32.908;2023-09-19T03:22:23;7.67;;;3.00;;
72584;SDS011;60618;40.084;32.908;2023-09-19T03:24:50;7.90;;;3.30;;
72584;SDS011;60618;40.084;32.908;2023-09-19T03:27:17;6.40;;;2.90;;
72584;SDS011;60618;40.084;32.908;2023-09-19T03:29:44;6.85;;;3.05;;
72584;SDS011;60618;40.084;32.908;2023-09-19T03:32:11;8.35;;;2.97;;
72584;SDS011;60618;40.084;32.908;2023-09-19T03:34:38;6.53;;;3.10;;
72584;SDS011;60618;40.084;32.908;2023-09-19T03:37:05;7.32;;;3.30;;
72584;SDS011;60618;40.084;32.908;2023-09-19T03:39:32;7.57;;;2.78;;
72584;SDS011;60618;40.084;32.908;2023-09-19T03:42:00;5.32;;;2.60;;
72584;SDS011;60618;40.084;32.908;2023-09-19T03:44:27;6.72;;;2.90;;
72584;SDS011;60618;40.084;32.908;2023-09-19T03:46:54;9.93;;;3.10;;
72584;SDS011;60618;40.084;32.908;2023-09-19T03:49:21;5.93;;;2.92;;
72584;SDS011;60618;40.084;32.908;2023-09-19T03:51:48;6.50;;;2.90;;
72584;SDS011;60618;40.084;32.908;2023-09-19T03:54:15;6.90;;;2.80;;
72584;SDS011;60618;40.084;32.908;2023-09-19T03:56:42;6.88;;;2.85;;
72584;SDS011;60618;40.084;32.908;2023-09-19T03:59:09;5.70;;;2.60;;
72584;SDS011;60618;40.084;32.908;2023-09-19T04:01:36;5.55;;;2.75;;
72584;SDS011;60618;40.084;32.908;2023-09-19T04:04:03;7.82;;;2.90;;
72584;SDS011;60618;40.084;32.908;2023-09-19T04:06:30;7.20;;;2.70;;
72584;SDS011;60618;40.084;32.908;2023-09-19T04:08:57;7.40;;;3.17;;
72584;SDS011;60618;40.084;32.908;2023-09-19T04:11:24;5.90;;;2.80;;
72584;SDS011;60618;40.084;32.908;2023-09-19T04:13:51;6.35;;;2.80;;
72584;SDS011;60618;40.084;32.908;2023-09-19T04:16:17;6.65;;;3.20;;
72584;SDS011;60618;40.084;32.908;2023-09-19T04:18:45;6.32;;;2.80;;
72584;SDS011;60618;40.084;32.908;2023-09-19T04:21:12;6.35;;;3.00;;
72584;SDS011;60618;40.084;32.908;2023-09-19T04:23:38;6.13;;;2.50;;
72584;SDS011;60618;40.084;32.908;2023-09-19T04:26:06;6.88;;;2.70;;
72584;SDS011;60618;40.084;32.908;2023-09-19T04:28:33;6.57;;;2.90;;
72584;SDS011;60618;40.084;32.908;2023-09-19T04:31:00;6.25;;;2.70;;
72584;SDS011;60618;40.084;32.908;2023-09-19T04:33:27;6.72;;;2.88;;
72584;SDS011;60618;40.084;32.908;2023-09-19T04:35:54;5.40;;;2.80;;
72584;SDS011;60618;40.084;32.908;2023-09-19T04:38:24;6.18;;;2.60;;
72584;SDS011;60618;40.084;32.908;2023-09-19T04:40:56;5.53;;;2.70;;
72584;SDS011;60618;40.084;32.908;2023-09-19T04:43:23;7.15;;;2.80;;
72584;SDS011;60618;40.084;32.908;2023-09-19T04:45:50;7.93;;;3.10;;
72584;SDS011;60618;40.084;32.908;2023-09-19T04:48:17;6.77;;;2.50;;
72584;SDS011;60618;40.084;32.908;2023-09-19T04:50:44;6.55;;;2.90;;
72584;SDS011;60618;40.084;32.908;2023-09-19T04:53:11;6.32;;;2.60;;
72584;SDS011;60618;40.084;32.908;2023-09-19T04:55:38;8.23;;;2.80;;
72584;SDS011;60618;40.084;32.908;2023-09-19T04:58:05;6.70;;;2.63;;
72584;SDS011;60618;40.084;32.908;2023-09-19T05:00:32;5.83;;;2.30;;
72584;SDS011;60618;40.084;32.908;2023-09-19T05:02:59;5.30;;;2.40;;
72584;SDS011;60618;40.084;32.908;2023-09-19T05:05:26;5.78;;;2.50;;
72584;SDS011;60618;40.084;32.908;2023-09-19T05:07:55;6.47;;;2.50;;
72584;SDS011;60618;40.084;32.908;2023-09-19T05:10:23;6.57;;;2.55;;
72584;SDS011;60618;40.084;32.908;2023-09-19T05:12:52;5.40;;;2.30;;
72584;SDS011;60618;40.084;32.908;2023-09-19T05:15:20;5.85;;;2.30;;
72584;SDS011;60618;40.084;32.908;2023-09-19T05:17:48;6.72;;;2.60;;
72584;SDS011;60618;40.084;32.908;2023-09-19T05:20:16;5.70;;;2.50;;
72584;SDS011;60618;40.084;32.908;2023-09-19T05:22:43;5.93;;;2.50;;
72584;SDS011;60618;40.084;32.908;2023-09-19T05:25:10;6.47;;;2.90;;
72584;SDS011;60618;40.084;32.908;2023-09-19T05:27:37;7.28;;;2.72;;
72584;SDS011;60618;40.084;32.908;2023-09-19T05:30:04;8.70;;;2.80;;
72584;SDS011;60618;40.084;32.908;2023-09-19T05:32:36;6.97;;;2.50;;
72584;SDS011;60618;40.084;32.908;2023-09-19T05:35:03;6.35;;;2.50;;
72584;SDS011;60618;40.084;32.908;2023-09-19T05:37:30;7.87;;;2.60;;
72584;SDS011;60618;40.084;32.908;2023-09-19T05:39:57;5.97;;;2.40;;
72584;SDS011;60618;40.084;32.908;2023-09-19T05:42:24;7.68;;;3.00;;
72584;SDS011;60618;40.084;32.908;2023-09-19T05:44:51;6.97;;;2.58;;
72584;SDS011;60618;40.084;32.908;2023-09-19T05:47:18;7.07;;;2.50;;
72584;SDS011;60618;40.084;32.908;2023-09-19T05:49:45;6.87;;;2.87;;
72584;SDS011;60618;40.084;32.908;2023-09-19T05:52:12;7.88;;;2.30;;
72584;SDS011;60618;40.084;32.908;2023-09-19T05:54:39;7.20;;;2.78;;
72584;SDS011;60618;40.084;32.908;2023-09-19T05:57:06;6.13;;;2.58;;
72584;SDS011;60618;40.084;32.908;2023-09-19T05:59:32;5.93;;;2.47;;
72584;SDS011;60618;40.084;32.908;2023-09-19T06:01:59;5.83;;;2.33;;
72584;SDS011;60618;40.084;32.908;2023-09-19T06:04:26;6.18;;;2.60;;
72584;SDS011;60618;40.084;32.908;2023-09-19T06:06:53;5.90;;;2.20;;
72584;SDS011;60618;40.084;32.908;2023-09-19T06:09:23;5.97;;;2.40;;
72584;SDS011;60618;40.084;32.908;2023-09-19T06:11:50;6.03;;;2.53;;
72584;SDS011;60618;40.084;32.908;2023-09-19T06:14:17;7.63;;;2.43;;
72584;SDS011;60618;40.084;32.908;2023-09-19T06:16:44;6.85;;;2.85;;
72584;SDS011;60618;40.084;32.908;2023-09-19T06:19:11;6.53;;;2.60;;
72584;SDS011;60618;40.084;32.908;2023-09-19T06:21:38;7.97;;;2.60;;
72584;SDS011;60618;40.084;32.908;2023-09-19T06:24:06;5.45;;;2.50;;
72584;SDS011;60618;40.084;32.908;2023-09-19T06:26:33;9.00;;;2.60;;
72584;SDS011;60618;40.084;32.908;2023-09-19T06:29:00;6.47;;;2.60;;
72584;SDS011;60618;40.084;32.908;2023-09-19T06:31:29;7.05;;;2.45;;
72584;SDS011;60618;40.084;32.908;2023-09-19T06:33:56;7.45;;;2.80;;
72584;SDS011;60618;40.084;32.908;2023-09-19T06:36:23;5.97;;;2.63;;
72584;SDS011;60618;40.084;32.908;2023-09-19T06:38:50;4.90;;;2.30;;
72584;SDS011;60618;40.084;32.908;2023-09-19T06:41:17;11.65;;;2.92;;
72584;SDS011;60618;40.084;32.908;2023-09-19T06:43:44;7.28;;;2.72;;
72584;SDS011;60618;40.084;32.908;2023-09-19T06:46:11;7.78;;;3.10;;
72584;SDS011;60618;40.084;32.908;2023-09-19T06:48:38;5.80;;;2.70;;
72584;SDS011;60618;40.084;32.908;2023-09-19T06:51:06;6.50;;;2.50;;
72584;SDS011;60618;40.084;32.908;2023-09-19T06:53:33;6.60;;;2.30;;
72584;SDS011;60618;40.084;32.908;2023-09-19T06:56:02;5.40;;;2.67;;
72584;SDS011;60618;40.084;32.908;2023-09-19T06:58:29;7.55;;;2.60;;
72584;SDS011;60618;40.084;32.908;2023-09-19T07:00:57;8.57;;;2.95;;
72584;SDS011;60618;40.084;32.908;2023-09-19T07:03:24;12.37;;;2.93;;
72584;SDS011;60618;40.084;32.908;2023-09-19T07:05:51;7.95;;;3.08;;
72584;SDS011;60618;40.084;32.908;2023-09-19T07:08:18;6.55;;;2.85;;
72584;SDS011;60618;40.084;32.908;2023-09-19T07:10:45;6.40;;;2.75;;
72584;SDS011;60618;40.084;32.908;2023-09-19T07:13:12;6.63;;;2.80;;
72584;SDS011;60618;40.084;32.908;2023-09-19T07:15:39;11.33;;;2.47;;
72584;SDS011;60618;40.084;32.908;2023-09-19T07:18:06;6.38;;;2.90;;
72584;SDS011;60618;40.084;32.908;2023-09-19T07:20:34;6.05;;;2.70;;
72584;SDS011;60618;40.084;32.908;2023-09-19T07:23:01;7.00;;;2.80;;
72584;SDS011;60618;40.084;32.908;2023-09-19T07:25:28;6.25;;;2.72;;
72584;SDS011;60618;40.084;32.908;2023-09-19T07:27:56;6.43;;;3.00;;
72584;SDS011;60618;40.084;32.908;2023-09-19T07:30:24;5.90;;;2.70;;
72584;SDS011;60618;40.084;32.908;2023-09-19T07:32:51;7.47;;;2.63;;
72584;SDS011;60618;40.084;32.908;2023-09-19T07:35:19;7.35;;;2.70;;
72584;SDS011;60618;40.084;32.908;2023-09-19T07:37:47;7.22;;;2.78;;
72584;SDS011;60618;40.084;32.908;2023-09-19T07:40:15;7.80;;;3.07;;
72584;SDS011;60618;40.084;32.908;2023-09-19T07:42:42;7.45;;;3.00;;
72584;SDS011;60618;40.084;32.908;2023-09-19T07:45:10;6.47;;;2.90;;
72584;SDS011;60618;40.084;32.908;2023-09-19T07:47:37;6.07;;;2.67;;
72584;SDS011;60618;40.084;32.908;2023-09-19T07:50:04;7.95;;;3.05;;
72584;SDS011;60618;40.084;32.908;2023-09-19T07:52:31;8.97;;;3.37;;
72584;SDS011;60618;40.084;32.908;2023-09-19T07:54:58;5.63;;;2.90;;
72584;SDS011;60618;40.084;32.908;2023-09-19T07:57:25;6.72;;;2.92;;
72584;SDS011;60618;40.084;32.908;2023-09-19T07:59:52;10.80;;;3.10;;
72584;SDS011;60618;40.084;32.908;2023-09-19T08:02:19;6.90;;;2.67;;
72584;SDS011;60618;40.084;32.908;2023-09-19T08:04:46;8.30;;;2.63;;
72584;SDS011;60618;40.084;32.908;2023-09-19T08:07:14;7.57;;;2.70;;
72584;SDS011;60618;40.084;32.908;2023-09-19T08:09:41;6.93;;;2.63;;
72584;SDS011;60618;40.084;32.908;2023-09-19T08:12:08;5.47;;;2.20;;
72584;SDS011;60618;40.084;32.908;2023-09-19T08:14:35;5.47;;;2.50;;
72584;SDS011;60618;40.084;32.908;2023-09-19T08:17:03;4.83;;;2.50;;
72584;SDS011;60618;40.084;32.908;2023-09-19T08:19:30;7.95;;;2.30;;
72584;SDS011;60618;40.084;32.908;2023-09-19T08:21:57;5.07;;;2.17;;
72584;SDS011;60618;40.084;32.908;2023-09-19T08:24:28;6.10;;;2.15;;
72584;SDS011;60618;40.084;32.908;2023-09-19T08:26:56;7.88;;;2.70;;
72584;SDS011;60618;40.084;32.908;2023-09-19T08:29:24;4.77;;;2.37;;
72584;SDS011;60618;40.084;32.908;2023-09-19T08:31:51;8.25;;;2.50;;
72584;SDS011;60618;40.084;32.908;2023-09-19T08:34:18;5.20;;;2.22;;
72584;SDS011;60618;40.084;32.908;2023-09-19T08:36:45;6.13;;;2.58;;
72584;SDS011;60618;40.084;32.908;2023-09-19T08:39:12;6.45;;;2.58;;
72584;SDS011;60618;40.084;32.908;2023-09-19T08:41:39;5.07;;;2.13;;
72584;SDS011;60618;40.084;32.908;2023-09-19T08:44:06;7.68;;;2.35;;
72584;SDS011;60618;40.084;32.908;2023-09-19T08:46:34;6.28;;;2.50;;
72584;SDS011;60618;40.084;32.908;2023-09-19T08:49:08;4.85;;;2.28;;
72584;SDS011;60618;40.084;32.908;2023-09-19T08:51:46;6.78;;;2.38;;
72584;SDS011;60618;40.084;32.908;2023-09-19T08:54:25;5.97;;;2.43;;
72584;SDS011;60618;40.084;32.908;2023-09-19T08:56:55;4.55;;;2.10;;
72584;SDS011;60618;40.084;32.908;2023-09-19T08:59:25;5.55;;;2.20;;
72584;SDS011;60618;40.084;32.908;2023-09-19T09:01:53;5.53;;;2.25;;
72584;SDS011;60618;40.084;32.908;2023-09-19T09:04:22;5.07;;;2.10;;
72584;SDS011;60618;40.084;32.908;2023-09-19T09:06:49;7.53;;;2.27;;
72584;SDS011;60618;40.084;32.908;2023-09-19T09:09:17;5.10;;;2.17;;
72584;SDS011;60618;40.084;32.908;2023-09-19T09:11:44;4.68;;;1.80;;
72584;SDS011;60618;40.084;32.908;2023-09-19T09:14:12;5.82;;;2.40;;
72584;SDS011;60618;40.084;32.908;2023-09-19T09:16:40;7.20;;;2.20;;
72584;SDS011;60618;40.084;32.908;2023-09-19T09:19:07;6.93;;;1.93;;
72584;SDS011;60618;40.084;32.908;2023-09-19T09:21:34;7.45;;;2.15;;
72584;SDS011;60618;40.084;32.908;2023-09-19T09:24:25;6.63;;;2.08;;
72584;SDS011;60618;40.084;32.908;2023-09-19T09:26:54;4.28;;;2.05;;
72584;SDS011;60618;40.084;32.908;2023-09-19T09:32:18;7.40;;;2.30;;
72584;SDS011;60618;40.084;32.908;2023-09-19T09:34:47;4.97;;;2.10;;
72584;SDS011;60618;40.084;32.908;2023-09-19T09:37:17;4.40;;;2.10;;
72584;SDS011;60618;40.084;32.908;2023-09-19T09:39:54;6.03;;;2.00;;
72584;SDS011;60618;40.084;32.908;2023-09-19T09:42:29;4.82;;;2.10;;
72584;SDS011;60618;40.084;32.908;2023-09-19T09:45:16;6.13;;;2.30;;
72584;SDS011;60618;40.084;32.908;2023-09-19T09:47:44;4.90;;;2.05;;
72584;SDS011;60618;40.084;32.908;2023-09-19T09:50:14;5.03;;;2.20;;
72584;SDS011;60618;40.084;32.908;2023-09-19T09:52:50;6.10;;;2.20;;
72584;SDS011;60618;40.084;32.908;2023-09-19T09:55:17;5.22;;;2.05;;
72584;SDS011;60618;40.084;32.908;2023-09-19T09:57:44;5.70;;;2.27;;
72584;SDS011;60618;40.084;32.908;2023-09-19T10:00:11;4.78;;;1.90;;
72584;SDS011;60618;40.084;32.908;2023-09-19T10:02:38;6.72;;;2.30;;
72584;SDS011;60618;40.084;32.908;2023-09-19T10:05:11;6.90;;;2.20;;
72584;SDS011;60618;40.084;32.908;2023-09-19T10:07:42;4.68;;;2.30;;
72584;SDS011;60618;40.084;32.908;2023-09-19T10:10:10;4.27;;;2.00;;
72584;SDS011;60618;40.084;32.908;2023-09-19T10:12:42;4.43;;;2.00;;
72584;SDS011;60618;40.084;32.908;2023-09-19T10:15:11;6.35;;;2.10;;
72584;SDS011;60618;40.084;32.908;2023-09-19T10:17:38;5.45;;;2.20;;
72584;SDS011;60618;40.084;32.908;2023-09-19T10:20:10;5.22;;;2.30;;
72584;SDS011;60618;40.084;32.908;2023-09-19T10:22:40;5.77;;;2.20;;
72584;SDS011;60618;40.084;32.908;2023-09-19T10:25:08;5.40;;;2.00;;
72584;SDS011;60618;40.084;32.908;2023-09-19T10:27:35;5.55;;;2.10;;
72584;SDS011;60618;40.084;32.908;2023-09-19T10:30:07;4.70;;;2.17;;
72584;SDS011;60618;40.084;32.908;2023-09-19T10:32:36;4.45;;;2.20;;
72584;SDS011;60618;40.084;32.908;2023-09-19T10:35:07;5.27;;;2.00;;
72584;SDS011;60618;40.084;32.908;2023-09-19T10:37:35;4.78;;;2.50;;
72584;SDS011;60618;40.084;32.908;2023-09-19T10:40:04;4.70;;;2.30;;
72584;SDS011;60618;40.084;32.908;2023-09-19T10:42:33;5.50;;;2.03;;
72584;SDS011;60618;40.084;32.908;2023-09-19T10:45:04;6.22;;;2.10;;
72584;SDS011;60618;40.084;32.908;2023-09-19T10:47:34;4.90;;;1.93;;
72584;SDS011;60618;40.084;32.908;2023-09-19T10:50:01;5.25;;;1.95;;
72584;SDS011;60618;40.084;32.908;2023-09-19T10:52:28;4.43;;;1.80;;
72584;SDS011;60618;40.084;32.908;2023-09-19T10:54:56;6.72;;;2.10;;
72584;SDS011;60618;40.084;32.908;2023-09-19T10:57:24;4.50;;;1.80;;
72584;SDS011;60618;40.084;32.908;2023-09-19T11:00:02;5.43;;;2.00;;
72584;SDS011;60618;40.084;32.908;2023-09-19T11:02:33;5.03;;;2.00;;
72584;SDS011;60618;40.084;32.908;2023-09-19T11:05:13;6.53;;;1.95;;
72584;SDS011;60618;40.084;32.908;2023-09-19T11:07:59;5.15;;;1.80;;
72584;SDS011;60618;40.084;32.908;2023-09-19T11:13:28;6.07;;;2.17;;
72584;SDS011;60618;40.084;32.908;2023-09-19T11:26:43;6.90;;;1.83;;
72584;SDS011;60618;40.084;32.908;2023-09-19T11:32:07;5.03;;;1.95;;
72584;SDS011;60618;40.084;32.908;2023-09-19T11:34:42;9.80;;;1.80;;
72584;SDS011;60618;40.084;32.908;2023-09-19T11:39:37;6.97;;;2.13;;
72584;SDS011;60618;40.084;32.908;2023-09-19T11:48:05;13.02;;;2.58;;
72584;SDS011;60618;40.084;32.908;2023-09-19T11:50:34;6.45;;;1.90;;
72584;SDS011;60618;40.084;32.908;2023-09-19T11:53:02;7.00;;;2.07;;
72584;SDS011;60618;40.084;32.908;2023-09-19T11:55:29;4.63;;;2.10;;
72584;SDS011;60618;40.084;32.908;2023-09-19T11:57:58;4.72;;;2.00;;
72584;SDS011;60618;40.084;32.908;2023-09-19T12:00:26;7.70;;;2.30;;
72584;SDS011;60618;40.084;32.908;2023-09-19T12:02:54;5.70;;;2.00;;
72584;SDS011;60618;40.084;32.908;2023-09-19T12:05:30;7.73;;;1.97;;
72584;SDS011;60618;40.084;32.908;2023-09-19T12:07:57;5.03;;;1.73;;
72584;SDS011;60618;40.084;32.908;2023-09-19T12:10:24;7.45;;;2.10;;
72584;SDS011;60618;40.084;32.908;2023-09-19T12:12:51;4.40;;;2.08;;
72584;SDS011;60618;40.084;32.908;2023-09-19T12:15:22;5.57;;;1.70;;
72584;SDS011;60618;40.084;32.908;2023-09-19T12:17:50;5.37;;;1.90;;
72584;SDS011;60618;40.084;32.908;2023-09-19T12:20:18;7.05;;;2.08;;
72584;SDS011;60618;40.084;32.908;2023-09-19T12:22:46;5.30;;;1.70;;
72584;SDS011;60618;40.084;32.908;2023-09-19T12:25:13;4.60;;;1.83;;
72584;SDS011;60618;40.084;32.908;2023-09-19T12:27:43;6.65;;;1.90;;
72584;SDS011;60618;40.084;32.908;2023-09-19T12:30:11;6.97;;;2.00;;
72584;SDS011;60618;40.084;32.908;2023-09-19T12:32:42;6.68;;;1.90;;
72584;SDS011;60618;40.084;32.908;2023-09-19T12:35:10;3.83;;;1.60;;
72584;SDS011;60618;40.084;32.908;2023-09-19T12:37:37;6.82;;;2.03;;
72584;SDS011;60618;40.084;32.908;2023-09-19T12:40:09;6.50;;;2.13;;
72584;SDS011;60618;40.084;32.908;2023-09-19T12:42:36;5.13;;;1.80;;
72584;SDS011;60618;40.084;32.908;2023-09-19T12:45:03;5.85;;;1.90;;
72584;SDS011;60618;40.084;32.908;2023-09-19T12:47:34;8.98;;;2.20;;
72584;SDS011;60618;40.084;32.908;2023-09-19T12:50:19;6.00;;;2.00;;
72584;SDS011;60618;40.084;32.908;2023-09-19T12:55:21;5.33;;;1.80;;
72584;SDS011;60618;40.084;32.908;2023-09-19T12:58:08;5.53;;;2.00;;
72584;SDS011;60618;40.084;32.908;2023-09-19T13:00:39;7.15;;;1.70;;
72584;SDS011;60618;40.084;32.908;2023-09-19T13:05:49;4.45;;;1.90;;
72584;SDS011;60618;40.084;32.908;2023-09-19T13:08:24;5.77;;;1.77;;
72584;SDS011;60618;40.084;32.908;2023-09-19T13:11:35;6.03;;;1.75;;
72584;SDS011;60618;40.084;32.908;2023-09-19T13:13:50;3.70;;;1.77;;
72584;SDS011;60618;40.084;32.908;2023-09-19T13:16:56;5.97;;;1.90;;
72584;SDS011;60618;40.084;32.908;2023-09-19T13:22:35;5.37;;;1.83;;
72584;SDS011;60618;40.084;32.908;2023-09-19T13:25:15;7.97;;;2.08;;
72584;SDS011;60618;40.084;32.908;2023-09-19T13:27:44;6.18;;;1.73;;
72584;SDS011;60618;40.084;32.908;2023-09-19T13:30:13;5.80;;;2.13;;
72584;SDS011;60618;40.084;32.908;2023-09-19T13:32:40;5.38;;;1.90;;
72584;SDS011;60618;40.084;32.908;2023-09-19T13:35:07;5.23;;;1.83;;
72584;SDS011;60618;40.084;32.908;2023-09-19T13:37:34;7.88;;;2.00;;
72584;SDS011;60618;40.084;32.908;2023-09-19T13:40:01;4.88;;;1.80;;
72584;SDS011;60618;40.084;32.908;2023-09-19T13:42:28;5.45;;;1.60;;
72584;SDS011;60618;40.084;32.908;2023-09-19T13:44:55;4.40;;;1.80;;
72584;SDS011;60618;40.084;32.908;2023-09-19T13:47:22;5.73;;;1.83;;
72584;SDS011;60618;40.084;32.908;2023-09-19T13:49:52;4.47;;;1.60;;
72584;SDS011;60618;40.084;32.908;2023-09-19T13:52:20;5.88;;;1.80;;
72584;SDS011;60618;40.084;32.908;2023-09-19T13:54:47;4.13;;;1.60;;
72584;SDS011;60618;40.084;32.908;2023-09-19T13:57:14;5.22;;;1.80;;
72584;SDS011;60618;40.084;32.908;2023-09-19T13:59:41;5.43;;;1.70;;
72584;SDS011;60618;40.084;32.908;2023-09-19T14:02:07;17.30;;;2.10;;
72584;SDS011;60618;40.084;32.908;2023-09-19T14:04:35;6.88;;;1.77;;
72584;SDS011;60618;40.084;32.908;2023-09-19T14:07:02;4.20;;;1.70;;
72584;SDS011;60618;40.084;32.908;2023-09-19T14:09:29;4.32;;;1.55;;
72584;SDS011;60618;40.084;32.908;2023-09-19T14:11:58;4.57;;;1.60;;
72584;SDS011;60618;40.084;32.908;2023-09-19T14:14:25;6.28;;;1.80;;
72584;SDS011;60618;40.084;32.908;2023-09-19T14:16:55;14.98;;;2.03;;
72584;SDS011;60618;40.084;32.908;2023-09-19T14:19:22;4.68;;;1.70;;
72584;SDS011;60618;40.084;32.908;2023-09-19T14:21:50;4.95;;;1.63;;
72584;SDS011;60618;40.084;32.908;2023-09-19T14:24:17;5.57;;;1.60;;
72584;SDS011;60618;40.084;32.908;2023-09-19T14:26:45;5.50;;;1.60;;
72584;SDS011;60618;40.084;32.908;2023-09-19T14:29:12;5.13;;;1.60;;
72584;SDS011;60618;40.084;32.908;2023-09-19T14:31:39;4.45;;;1.42;;
72584;SDS011;60618;40.084;32.908;2023-09-19T14:34:06;4.50;;;1.67;;
72584;SDS011;60618;40.084;32.908;2023-09-19T14:36:33;4.63;;;1.60;;
72584;SDS011;60618;40.084;32.908;2023-09-19T14:39:00;4.95;;;1.70;;
72584;SDS011;60618;40.084;32.908;2023-09-19T14:41:27;5.55;;;1.80;;
72584;SDS011;60618;40.084;32.908;2023-09-19T14:43:54;13.48;;;1.83;;
72584;SDS011;60618;40.084;32.908;2023-09-19T14:46:21;9.57;;;1.60;;
72584;SDS011;60618;40.084;32.908;2023-09-19T14:48:49;5.13;;;1.80;;
72584;SDS011;60618;40.084;32.908;2023-09-19T14:51:16;5.97;;;2.10;;
72584;SDS011;60618;40.084;32.908;2023-09-19T14:53:43;5.68;;;1.85;;
72584;SDS011;60618;40.084;32.908;2023-09-19T14:56:10;8.30;;;2.20;;
72584;SDS011;60618;40.084;32.908;2023-09-19T14:58:37;11.05;;;2.30;;
72584;SDS011;60618;40.084;32.908;2023-09-19T15:03:35;7.88;;;2.30;;
72584;SDS011;60618;40.084;32.908;2023-09-19T15:06:04;6.40;;;2.40;;
72584;SDS011;60618;40.084;32.908;2023-09-19T15:08:33;10.50;;;2.42;;
72584;SDS011;60618;40.084;32.908;2023-09-19T15:11:02;7.72;;;2.33;;
72584;SDS011;60618;40.084;32.908;2023-09-19T15:13:29;8.30;;;2.70;;
72584;SDS011;60618;40.084;32.908;2023-09-19T15:16:03;10.30;;;2.47;;
72584;SDS011;60618;40.084;32.908;2023-09-19T15:18:31;13.02;;;2.17;;
72584;SDS011;60618;40.084;32.908;2023-09-19T15:21:00;6.22;;;2.30;;
72584;SDS011;60618;40.084;32.908;2023-09-19T15:23:27;7.22;;;2.00;;
72584;SDS011;60618;40.084;32.908;2023-09-19T15:25:58;7.83;;;2.07;;
72584;SDS011;60618;40.084;32.908;2023-09-19T15:28:25;8.30;;;1.80;;
72584;SDS011;60618;40.084;32.908;2023-09-19T15:31:04;7.47;;;1.80;;
72584;SDS011;60618;40.084;32.908;2023-09-19T15:33:32;8.73;;;1.88;;
72584;SDS011;60618;40.084;32.908;2023-09-19T15:36:07;7.28;;;2.03;;
72584;SDS011;60618;40.084;32.908;2023-09-19T15:41:28;27.63;;;10.68;;